sensor_id;sensor_type;location;lat;lon;timestamp;pressure;altitude;pressure_sealevel;temperature;humidity
76994;BME280;66749;47.406;18.822;2023-04-25T00:00:21;99336.22;;;11.99;76.84
76994;BME280;66749;47.406;18.822;2023-04-25T00:00:52;99330.16;;;11.98;77.16
76994;BME280;66749;47.406;18.822;2023-04-25T00:01:22;99328.16;;;12.02;76.80
76994;BME280;66749;47.406;18.822;2023-04-25T00:01:53;99330.75;;;12.02;76.92
76994;BME280;66749;47.406;18.822;2023-04-25T00:02:24;99331.81;;;11.99;76.81
76994;BME280;66749;47.406;18.822;2023-04-25T00:02:55;99331.81;;;11.99;77.20
76994;BME280;66749;47.406;18.822;2023-04-25T00:03:26;99331.69;;;12.01;76.89
76994;BME280;66749;47.406;18.822;2023-04-25T00:03:57;99337.03;;;11.99;76.73
76994;BME280;66749;47.406;18.822;2023-04-25T00:04:28;99331.81;;;11.99;77.29
76994;BME280;66749;47.406;18.822;2023-04-25T00:05:00;99334.06;;;12.04;76.88
76994;BME280;66749;47.406;18.822;2023-04-25T00:05:32;99333.25;;;12.03;76.88
76994;BME280;66749;47.406;18.822;2023-04-25T00:06:02;99338.47;;;12.03;76.86
76994;BME280;66749;47.406;18.822;2023-04-25T00:06:36;99334.91;;;12.04;77.04
76994;BME280;66749;47.406;18.822;2023-04-25T00:07:07;99334.31;;;12.01;76.88
76994;BME280;66749;47.406;18.822;2023-04-25T00:07:38;99330.50;;;12.05;76.96
76994;BME280;66749;47.406;18.822;2023-04-25T00:08:09;99332.16;;;12.06;77.02
76994;BME280;66749;47.406;18.822;2023-04-25T00:08:40;99336.00;;;12.02;77.02
76994;BME280;66749;47.406;18.822;2023-04-25T00:09:11;99325.63;;;12.00;76.96
76994;BME280;66749;47.406;18.822;2023-04-25T00:09:42;99336.09;;;12.00;76.85
76994;BME280;66749;47.406;18.822;2023-04-25T00:10:12;99335.25;;;12.00;76.66
76994;BME280;66749;47.406;18.822;2023-04-25T00:10:43;99338.59;;;12.02;76.72
76994;BME280;66749;47.406;18.822;2023-04-25T00:11:13;99335.38;;;11.98;76.98
76994;BME280;66749;47.406;18.822;2023-04-25T00:11:44;99334.81;;;11.94;77.09
76994;BME280;66749;47.406;18.822;2023-04-25T00:12:15;99329.69;;;11.93;77.32
76994;BME280;66749;47.406;18.822;2023-04-25T00:12:46;99327.06;;;11.93;77.03
76994;BME280;66749;47.406;18.822;2023-04-25T00:13:16;99323.63;;;11.92;77.24
76994;BME280;66749;47.406;18.822;2023-04-25T00:13:47;99325.41;;;11.92;77.34
76994;BME280;66749;47.406;18.822;2023-04-25T00:14:19;99329.22;;;11.88;77.40
76994;BME280;66749;47.406;18.822;2023-04-25T00:14:50;99331.09;;;11.86;77.54
76994;BME280;66749;47.406;18.822;2023-04-25T00:15:21;99318.50;;;11.91;77.09
76994;BME280;66749;47.406;18.822;2023-04-25T00:15:52;99328.75;;;11.94;77.43
76994;BME280;66749;47.406;18.822;2023-04-25T00:16:26;99321.81;;;11.93;77.02
76994;BME280;66749;47.406;18.822;2023-04-25T00:16:57;99329.81;;;11.91;77.18
76994;BME280;66749;47.406;18.822;2023-04-25T00:17:28;99321.25;;;11.89;77.36
76994;BME280;66749;47.406;18.822;2023-04-25T00:17:58;99319.34;;;11.91;77.46
76994;BME280;66749;47.406;18.822;2023-04-25T00:18:29;99314.25;;;11.90;77.56
76994;BME280;66749;47.406;18.822;2023-04-25T00:19:01;99325.66;;;11.89;77.72
76994;BME280;66749;47.406;18.822;2023-04-25T00:19:32;99317.34;;;11.84;77.49
76994;BME280;66749;47.406;18.822;2023-04-25T00:20:05;99321.25;;;11.89;77.66
76994;BME280;66749;47.406;18.822;2023-04-25T00:20:38;99316.50;;;11.94;77.62
76994;BME280;66749;47.406;18.822;2023-04-25T00:21:08;99315.69;;;11.94;77.73
76994;BME280;66749;47.406;18.822;2023-04-25T00:21:39;99318.50;;;11.91;77.58
76994;BME280;66749;47.406;18.822;2023-04-25T00:22:10;99314.38;;;11.88;77.86
76994;BME280;66749;47.406;18.822;2023-04-25T00:22:42;99313.88;;;11.83;78.04
76994;BME280;66749;47.406;18.822;2023-04-25T00:23:13;99320.06;;;11.82;78.57
76994;BME280;66749;47.406;18.822;2023-04-25T00:23:47;99315.41;;;11.86;78.36
76994;BME280;66749;47.406;18.822;2023-04-25T00:24:19;99328.50;;;11.86;78.65
76994;BME280;66749;47.406;18.822;2023-04-25T00:24:49;99319.94;;;11.84;78.79
76994;BME280;66749;47.406;18.822;2023-04-25T00:25:20;99315.91;;;11.80;78.85
76994;BME280;66749;47.406;18.822;2023-04-25T00:25:51;99319.13;;;11.83;78.69
76994;BME280;66749;47.406;18.822;2023-04-25T00:26:21;99325.44;;;11.81;78.88
76994;BME280;66749;47.406;18.822;2023-04-25T00:26:52;99327.56;;;11.87;78.93
76994;BME280;66749;47.406;18.822;2023-04-25T00:27:23;99323.75;;;11.91;78.56
76994;BME280;66749;47.406;18.822;2023-04-25T00:27:53;99319.94;;;11.84;79.17
76994;BME280;66749;47.406;18.822;2023-04-25T00:28:24;99316.38;;;11.85;78.87
76994;BME280;66749;47.406;18.822;2023-04-25T00:28:54;99322.56;;;11.84;78.79
76994;BME280;66749;47.406;18.822;2023-04-25T00:29:25;99326.13;;;11.83;79.04
76994;BME280;66749;47.406;18.822;2023-04-25T00:29:56;99320.28;;;11.79;79.22
76994;BME280;66749;47.406;18.822;2023-04-25T00:30:27;99325.63;;;11.78;79.02
76994;BME280;66749;47.406;18.822;2023-04-25T00:30:58;99308.91;;;11.80;79.27
76994;BME280;66749;47.406;18.822;2023-04-25T00:31:28;99318.59;;;11.78;79.65
76994;BME280;66749;47.406;18.822;2023-04-25T00:32:00;99319.44;;;11.79;79.25
76994;BME280;66749;47.406;18.822;2023-04-25T00:32:30;99306.31;;;11.80;79.14
76994;BME280;66749;47.406;18.822;2023-04-25T00:33:01;99309.94;;;11.78;79.54
76994;BME280;66749;47.406;18.822;2023-04-25T00:33:32;99316.13;;;11.77;79.64
76994;BME280;66749;47.406;18.822;2023-04-25T00:34:02;99313.06;;;11.72;79.58
76994;BME280;66749;47.406;18.822;2023-04-25T00:34:33;99310.44;;;11.72;79.53
76994;BME280;66749;47.406;18.822;2023-04-25T00:35:04;99318.84;;;11.75;79.76
76994;BME280;66749;47.406;18.822;2023-04-25T00:35:35;99310.53;;;11.70;79.83
76994;BME280;66749;47.406;18.822;2023-04-25T00:36:06;99312.19;;;11.71;79.62
76994;BME280;66749;47.406;18.822;2023-04-25T00:36:37;99307.56;;;11.75;79.87
76994;BME280;66749;47.406;18.822;2023-04-25T00:37:08;99313.38;;;11.78;79.73
76994;BME280;66749;47.406;18.822;2023-04-25T00:37:38;99314.47;;;11.76;79.85
76994;BME280;66749;47.406;18.822;2023-04-25T00:38:10;99308.53;;;11.74;79.78
76994;BME280;66749;47.406;18.822;2023-04-25T00:38:40;99311.16;;;11.74;79.88
76994;BME280;66749;47.406;18.822;2023-04-25T00:39:11;99311.16;;;11.74;79.70
76994;BME280;66749;47.406;18.822;2023-04-25T00:39:42;99313.63;;;11.75;80.00
76994;BME280;66749;47.406;18.822;2023-04-25T00:40:12;99307.56;;;11.75;79.99
76994;BME280;66749;47.406;18.822;2023-04-25T00:40:43;99309.22;;;11.76;79.90
76994;BME280;66749;47.406;18.822;2023-04-25T00:41:14;99315.53;;;11.73;79.88
76994;BME280;66749;47.406;18.822;2023-04-25T00:41:45;99313.75;;;11.74;79.89
76994;BME280;66749;47.406;18.822;2023-04-25T00:42:16;99317.41;;;11.71;79.73
76994;BME280;66749;47.406;18.822;2023-04-25T00:42:47;99313.97;;;11.71;80.10
76994;BME280;66749;47.406;18.822;2023-04-25T00:43:18;99305.31;;;11.70;79.79
76994;BME280;66749;47.406;18.822;2023-04-25T00:43:49;99304.47;;;11.70;79.99
76994;BME280;66749;47.406;18.822;2023-04-25T00:44:20;99304.94;;;11.63;79.86
76994;BME280;66749;47.406;18.822;2023-04-25T00:44:52;99301.16;;;11.67;79.78
76994;BME280;66749;47.406;18.822;2023-04-25T00:45:27;99308.88;;;11.69;80.14
76994;BME280;66749;47.406;18.822;2023-04-25T00:46:00;99313.28;;;11.68;80.20
76994;BME280;66749;47.406;18.822;2023-04-25T00:46:31;99303.06;;;11.65;80.08
76994;BME280;66749;47.406;18.822;2023-04-25T00:47:02;99304.59;;;11.68;79.82
76994;BME280;66749;47.406;18.822;2023-04-25T00:47:35;99299.97;;;11.60;80.01
76994;BME280;66749;47.406;18.822;2023-04-25T00:48:06;99301.63;;;11.61;79.86
76994;BME280;66749;47.406;18.822;2023-04-25T00:48:37;99300.81;;;11.61;80.02
76994;BME280;66749;47.406;18.822;2023-04-25T00:49:07;99300.81;;;11.61;79.97
76994;BME280;66749;47.406;18.822;2023-04-25T00:49:38;99301.50;;;11.63;79.82
76994;BME280;66749;47.406;18.822;2023-04-25T00:50:09;99302.59;;;11.60;79.76
76994;BME280;66749;47.406;18.822;2023-04-25T00:50:41;99303.06;;;11.65;79.78
76994;BME280;66749;47.406;18.822;2023-04-25T00:51:16;99304.50;;;11.58;79.84
76994;BME280;66749;47.406;18.822;2023-04-25T00:51:49;99301.88;;;11.58;80.05
76994;BME280;66749;47.406;18.822;2023-04-25T00:52:20;99294.50;;;11.63;79.57
76994;BME280;66749;47.406;18.822;2023-04-25T00:52:51;99297.03;;;11.65;79.83
76994;BME280;66749;47.406;18.822;2023-04-25T00:53:23;99291.78;;;11.65;79.62
76994;BME280;66749;47.406;18.822;2023-04-25T00:53:54;99295.00;;;11.57;79.45
76994;BME280;66749;47.406;18.822;2023-04-25T00:54:25;99291.56;;;11.57;79.31
76994;BME280;66749;47.406;18.822;2023-04-25T00:54:56;99296.41;;;11.61;79.43
76994;BME280;66749;47.406;18.822;2023-04-25T00:55:27;99284.44;;;11.59;79.60
76994;BME280;66749;47.406;18.822;2023-04-25T00:55:58;99293.78;;;11.61;79.44
76994;BME280;66749;47.406;18.822;2023-04-25T00:56:28;99290.59;;;11.58;79.42
76994;BME280;66749;47.406;18.822;2023-04-25T00:56:59;99289.53;;;11.60;79.09
76994;BME280;66749;47.406;18.822;2023-04-25T00:57:31;99281.94;;;11.57;79.13
76994;BME280;66749;47.406;18.822;2023-04-25T00:58:02;99288.56;;;11.61;78.84
76994;BME280;66749;47.406;18.822;2023-04-25T00:58:32;99286.91;;;11.60;79.30
76994;BME280;66749;47.406;18.822;2023-04-25T00:59:03;99284.31;;;11.60;78.90
76994;BME280;66749;47.406;18.822;2023-04-25T00:59:36;99276.59;;;11.59;78.95
76994;BME280;66749;47.406;18.822;2023-04-25T01:00:09;99288.94;;;11.57;78.88
76994;BME280;66749;47.406;18.822;2023-04-25T01:00:41;99279.66;;;11.53;78.81
76994;BME280;66749;47.406;18.822;2023-04-25T01:01:12;99282.91;;;11.56;78.74
76994;BME280;66749;47.406;18.822;2023-04-25T01:01:43;99280.28;;;11.56;78.43
76994;BME280;66749;47.406;18.822;2023-04-25T01:02:15;99279.53;;;11.54;78.79
76994;BME280;66749;47.406;18.822;2023-04-25T01:02:47;99277.66;;;11.56;78.41
76994;BME280;66749;47.406;18.822;2023-04-25T01:03:18;99279.53;;;11.54;78.33
76994;BME280;66749;47.406;18.822;2023-04-25T01:03:53;99291.06;;;11.52;78.75
76994;BME280;66749;47.406;18.822;2023-04-25T01:04:24;99285.03;;;11.51;78.70
76994;BME280;66749;47.406;18.822;2023-04-25T01:04:55;99281.94;;;11.46;78.45
76994;BME280;66749;47.406;18.822;2023-04-25T01:05:26;99282.63;;;11.48;78.19
76994;BME280;66749;47.406;18.822;2023-04-25T01:05:56;99285.16;;;11.50;78.07
76994;BME280;66749;47.406;18.822;2023-04-25T01:06:27;99273.97;;;11.48;78.39
76994;BME280;66749;47.406;18.822;2023-04-25T01:06:58;99283.59;;;11.47;78.32
76994;BME280;66749;47.406;18.822;2023-04-25T01:07:29;99275.66;;;11.49;78.10
76994;BME280;66749;47.406;18.822;2023-04-25T01:07:59;99288.34;;;11.53;78.09
76994;BME280;66749;47.406;18.822;2023-04-25T01:08:31;99287.84;;;11.48;78.07
76994;BME280;66749;47.406;18.822;2023-04-25T01:09:01;99279.44;;;11.45;77.84
76994;BME280;66749;47.406;18.822;2023-04-25T01:09:33;99272.31;;;11.47;78.13
76994;BME280;66749;47.406;18.822;2023-04-25T01:10:04;99277.06;;;11.42;77.82
76994;BME280;66749;47.406;18.822;2023-04-25T01:10:36;99287.75;;;11.50;77.63
76994;BME280;66749;47.406;18.822;2023-04-25T01:11:07;99283.59;;;11.47;77.49
76994;BME280;66749;47.406;18.822;2023-04-25T01:11:38;99279.78;;;11.51;77.83
76994;BME280;66749;47.406;18.822;2023-04-25T01:12:10;99282.53;;;11.50;77.33
76994;BME280;66749;47.406;18.822;2023-04-25T01:12:41;99289.41;;;11.51;77.30
76994;BME280;66749;47.406;18.822;2023-04-25T01:13:12;99285.97;;;11.50;77.14
76994;BME280;66749;47.406;18.822;2023-04-25T01:13:43;99280.00;;;11.48;77.53
76994;BME280;66749;47.406;18.822;2023-04-25T01:14:13;99284.06;;;11.52;77.44
76994;BME280;66749;47.406;18.822;2023-04-25T01:14:44;99279.91;;;11.50;77.14
76994;BME280;66749;47.406;18.822;2023-04-25T01:15:15;99281.59;;;11.51;77.29
76994;BME280;66749;47.406;18.822;2023-04-25T01:15:46;99291.19;;;11.50;77.15
76994;BME280;66749;47.406;18.822;2023-04-25T01:16:17;99291.19;;;11.50;76.81
76994;BME280;66749;47.406;18.822;2023-04-25T01:16:47;99284.19;;;11.51;76.57
76994;BME280;66749;47.406;18.822;2023-04-25T01:17:18;99286.09;;;11.49;76.62
76994;BME280;66749;47.406;18.822;2023-04-25T01:17:49;99281.44;;;11.52;76.54
76994;BME280;66749;47.406;18.822;2023-04-25T01:18:20;99277.75;;;11.55;76.40
76994;BME280;66749;47.406;18.822;2023-04-25T01:18:51;99292.72;;;11.53;76.28
76994;BME280;66749;47.406;18.822;2023-04-25T01:19:23;99279.09;;;11.49;76.33
76994;BME280;66749;47.406;18.822;2023-04-25T01:19:54;99288.81;;;11.47;76.64
76994;BME280;66749;47.406;18.822;2023-04-25T01:20:24;99286.19;;;11.47;76.46
76994;BME280;66749;47.406;18.822;2023-04-25T01:21:07;99286.09;;;11.49;76.28
76994;BME280;66749;47.406;18.822;2023-04-25T01:21:39;99288.34;;;11.53;76.31
76994;BME280;66749;47.406;18.822;2023-04-25T01:22:10;99290.00;;;11.54;75.97
76994;BME280;66749;47.406;18.822;2023-04-25T01:22:41;99283.81;;;11.55;76.30
76994;BME280;66749;47.406;18.822;2023-04-25T01:23:12;99287.63;;;11.51;75.77
76994;BME280;66749;47.406;18.822;2023-04-25T01:23:44;99285.50;;;11.45;75.85
76994;BME280;66749;47.406;18.822;2023-04-25T01:24:15;99285.50;;;11.45;75.96
76994;BME280;66749;47.406;18.822;2023-04-25T01:24:46;99289.88;;;11.45;75.54
76994;BME280;66749;47.406;18.822;2023-04-25T01:25:17;99285.38;;;11.47;75.66
76994;BME280;66749;47.406;18.822;2023-04-25T01:25:49;99287.75;;;11.50;75.41
76994;BME280;66749;47.406;18.822;2023-04-25T01:26:21;99286.94;;;11.49;75.12
76994;BME280;66749;47.406;18.822;2023-04-25T01:26:52;99286.19;;;11.47;75.23
76994;BME280;66749;47.406;18.822;2023-04-25T01:27:23;99285.38;;;11.47;75.19
76994;BME280;66749;47.406;18.822;2023-04-25T01:27:54;99290.38;;;11.50;75.27
76994;BME280;66749;47.406;18.822;2023-04-25T01:28:25;99287.84;;;11.48;75.00
76994;BME280;66749;47.406;18.822;2023-04-25T01:28:56;99288.81;;;11.47;75.02
76994;BME280;66749;47.406;18.822;2023-04-25T01:29:28;99285.25;;;11.48;75.06
76994;BME280;66749;47.406;18.822;2023-04-25T01:29:59;99282.63;;;11.48;75.06
76994;BME280;66749;47.406;18.822;2023-04-25T01:30:30;99288.59;;;11.50;75.27
76994;BME280;66749;47.406;18.822;2023-04-25T01:31:01;99291.41;;;11.47;75.32
76994;BME280;66749;47.406;18.822;2023-04-25T01:31:32;99287.75;;;11.50;75.14
76994;BME280;66749;47.406;18.822;2023-04-25T01:32:04;99287.75;;;11.50;75.21
76994;BME280;66749;47.406;18.822;2023-04-25T01:32:36;99288.94;;;11.46;74.88
76994;BME280;66749;47.406;18.822;2023-04-25T01:33:10;99285.38;;;11.47;74.68
76994;BME280;66749;47.406;18.822;2023-04-25T01:33:41;99295.00;;;11.46;74.96
76994;BME280;66749;47.406;18.822;2023-04-25T01:34:12;99292.63;;;11.43;74.48
76994;BME280;66749;47.406;18.822;2023-04-25T01:34:43;99284.53;;;11.46;74.59
76994;BME280;66749;47.406;18.822;2023-04-25T01:35:14;99286.31;;;11.46;74.68
76994;BME280;66749;47.406;18.822;2023-04-25T01:35:44;99293.22;;;11.47;74.88
76994;BME280;66749;47.406;18.822;2023-04-25T01:36:15;99285.38;;;11.47;74.74
76994;BME280;66749;47.406;18.822;2023-04-25T01:36:49;99296.56;;;11.49;74.44
76994;BME280;66749;47.406;18.822;2023-04-25T01:37:20;99291.06;;;11.52;74.50
76994;BME280;66749;47.406;18.822;2023-04-25T01:37:51;99287.03;;;11.48;74.62
76994;BME280;66749;47.406;18.822;2023-04-25T01:38:22;99286.09;;;11.49;74.31
76994;BME280;66749;47.406;18.822;2023-04-25T01:38:53;99282.63;;;11.48;74.57
76994;BME280;66749;47.406;18.822;2023-04-25T01:39:24;99289.88;;;11.45;74.51
76994;BME280;66749;47.406;18.822;2023-04-25T01:39:55;99282.88;;;11.45;74.00
76994;BME280;66749;47.406;18.822;2023-04-25T01:40:27;99297.03;;;11.43;74.15
76994;BME280;66749;47.406;18.822;2023-04-25T01:40:58;99287.63;;;11.40;74.04
76994;BME280;66749;47.406;18.822;2023-04-25T01:41:29;99288.22;;;11.44;74.18
76994;BME280;66749;47.406;18.822;2023-04-25T01:42:00;99288.34;;;11.42;74.10
76994;BME280;66749;47.406;18.822;2023-04-25T01:42:32;99283.22;;;11.40;73.80
76994;BME280;66749;47.406;18.822;2023-04-25T01:43:02;99286.44;;;11.44;73.68
76994;BME280;66749;47.406;18.822;2023-04-25T01:43:33;99286.31;;;11.46;73.50
76994;BME280;66749;47.406;18.822;2023-04-25T01:44:04;99286.56;;;11.43;73.51
76994;BME280;66749;47.406;18.822;2023-04-25T01:44:35;99286.31;;;11.46;73.42
76994;BME280;66749;47.406;18.822;2023-04-25T01:45:06;99291.53;;;11.46;73.33
76994;BME280;66749;47.406;18.822;2023-04-25T01:45:38;99284.09;;;11.41;72.62
76994;BME280;66749;47.406;18.822;2023-04-25T01:46:12;99290.13;;;11.42;73.17
76994;BME280;66749;47.406;18.822;2023-04-25T01:46:43;99289.06;;;11.44;72.99
76994;BME280;66749;47.406;18.822;2023-04-25T01:47:13;99289.41;;;11.39;73.18
76994;BME280;66749;47.406;18.822;2023-04-25T01:47:44;99286.78;;;11.39;73.22
76994;BME280;66749;47.406;18.822;2023-04-25T01:48:19;99292.13;;;11.38;73.18
76994;BME280;66749;47.406;18.822;2023-04-25T01:48:50;99295.47;;;11.40;73.27
76994;BME280;66749;47.406;18.822;2023-04-25T01:49:20;99298.06;;;11.40;73.56
76994;BME280;66749;47.406;18.822;2023-04-25T01:49:51;99295.38;;;11.42;73.00
76994;BME280;66749;47.406;18.822;2023-04-25T01:50:23;99292.84;;;11.40;73.05
76994;BME280;66749;47.406;18.822;2023-04-25T01:50:53;99296.53;;;11.37;73.22
76994;BME280;66749;47.406;18.822;2023-04-25T01:51:24;99284.31;;;11.38;73.22
76994;BME280;66749;47.406;18.822;2023-04-25T01:51:54;99295.38;;;11.42;73.01
76994;BME280;66749;47.406;18.822;2023-04-25T01:52:25;99296.66;;;11.36;72.56
76994;BME280;66749;47.406;18.822;2023-04-25T01:52:56;99299.16;;;11.37;72.82
76994;BME280;66749;47.406;18.822;2023-04-25T01:53:27;99296.53;;;11.37;72.75
76994;BME280;66749;47.406;18.822;2023-04-25T01:53:58;99293.91;;;11.37;72.55
76994;BME280;66749;47.406;18.822;2023-04-25T01:54:29;99301.06;;;11.35;72.41
76994;BME280;66749;47.406;18.822;2023-04-25T01:55:01;99299.03;;;11.39;72.69
76994;BME280;66749;47.406;18.822;2023-04-25T01:55:32;99292.63;;;11.43;72.43
76994;BME280;66749;47.406;18.822;2023-04-25T01:56:03;99291.19;;;11.39;72.08
76994;BME280;66749;47.406;18.822;2023-04-25T01:56:37;99300.69;;;11.40;71.68
76994;BME280;66749;47.406;18.822;2023-04-25T01:57:08;99297.84;;;11.43;71.60
76994;BME280;66749;47.406;18.822;2023-04-25T01:57:38;99300.47;;;11.43;71.79
76994;BME280;66749;47.406;18.822;2023-04-25T01:58:09;99301.50;;;11.40;72.04
76994;BME280;66749;47.406;18.822;2023-04-25T01:58:43;99299.97;;;11.38;71.91
76994;BME280;66749;47.406;18.822;2023-04-25T01:59:13;99299.97;;;11.38;71.79
76994;BME280;66749;47.406;18.822;2023-04-25T01:59:44;99298.91;;;11.40;71.83
76994;BME280;66749;47.406;18.822;2023-04-25T02:00:15;99292.97;;;11.38;71.30
76994;BME280;66749;47.406;18.822;2023-04-25T02:00:46;99298.81;;;11.42;71.39
76994;BME280;66749;47.406;18.822;2023-04-25T02:01:16;99305.19;;;11.38;71.49
76994;BME280;66749;47.406;18.822;2023-04-25T02:01:47;99307.22;;;11.34;71.84
76994;BME280;66749;47.406;18.822;2023-04-25T02:02:18;99302.72;;;11.36;71.62
76994;BME280;66749;47.406;18.822;2023-04-25T02:02:48;99302.00;;;11.34;71.63
76994;BME280;66749;47.406;18.822;2023-04-25T02:03:20;99300.09;;;11.36;71.29
76994;BME280;66749;47.406;18.822;2023-04-25T02:03:51;99302.84;;;11.35;71.16
76994;BME280;66749;47.406;18.822;2023-04-25T02:04:22;99298.66;;;11.32;71.16
76994;BME280;66749;47.406;18.822;2023-04-25T02:04:52;99299.28;;;11.36;71.05
76994;BME280;66749;47.406;18.822;2023-04-25T02:05:24;99295.84;;;11.35;71.04
76994;BME280;66749;47.406;18.822;2023-04-25T02:05:55;99303.53;;;11.37;71.19
76994;BME280;66749;47.406;18.822;2023-04-25T02:06:25;99306.97;;;11.37;71.33
76994;BME280;66749;47.406;18.822;2023-04-25T02:06:56;99300.22;;;11.35;70.84
76994;BME280;66749;47.406;18.822;2023-04-25T02:07:27;99292.25;;;11.36;71.00
76994;BME280;66749;47.406;18.822;2023-04-25T02:07:57;99294.03;;;11.36;71.29
76994;BME280;66749;47.406;18.822;2023-04-25T02:08:28;99295.94;;;11.34;70.86
76994;BME280;66749;47.406;18.822;2023-04-25T02:08:59;99295.22;;;11.32;71.15
76994;BME280;66749;47.406;18.822;2023-04-25T02:09:29;99297.69;;;11.33;70.96
76994;BME280;66749;47.406;18.822;2023-04-25T02:10:00;99291.66;;;11.33;71.18
76994;BME280;66749;47.406;18.822;2023-04-25T02:10:30;99290.81;;;11.32;71.07
76994;BME280;66749;47.406;18.822;2023-04-25T02:11:01;99292.03;;;11.28;70.99
76994;BME280;66749;47.406;18.822;2023-04-25T02:11:33;99295.34;;;11.30;70.56
76994;BME280;66749;47.406;18.822;2023-04-25T02:12:04;99304.63;;;11.34;70.73
76994;BME280;66749;47.406;18.822;2023-04-25T02:12:35;99293.34;;;11.34;70.78
76994;BME280;66749;47.406;18.822;2023-04-25T02:13:06;99290.81;;;11.32;71.05
76994;BME280;66749;47.406;18.822;2023-04-25T02:13:37;99294.38;;;11.31;70.95
76994;BME280;66749;47.406;18.822;2023-04-25T02:14:07;99294.50;;;11.30;70.97
76994;BME280;66749;47.406;18.822;2023-04-25T02:14:38;99290.81;;;11.32;71.17
76994;BME280;66749;47.406;18.822;2023-04-25T02:15:09;99300.22;;;11.35;70.89
76994;BME280;66749;47.406;18.822;2023-04-25T02:15:39;99296.78;;;11.34;71.04
76994;BME280;66749;47.406;18.822;2023-04-25T02:16:10;99294.25;;;11.33;71.05
76994;BME280;66749;47.406;18.822;2023-04-25T02:16:41;99298.06;;;11.29;70.95
76994;BME280;66749;47.406;18.822;2023-04-25T02:17:14;99297.13;;;11.30;71.30
76994;BME280;66749;47.406;18.822;2023-04-25T02:17:44;99297.94;;;11.30;70.61
76994;BME280;66749;47.406;18.822;2023-04-25T02:18:15;99289.16;;;11.31;70.89
76994;BME280;66749;47.406;18.822;2023-04-25T02:18:48;99292.84;;;11.29;71.12
76994;BME280;66749;47.406;18.822;2023-04-25T02:19:19;99293.56;;;11.31;70.98
76994;BME280;66749;47.406;18.822;2023-04-25T02:19:49;99295.47;;;11.29;70.93
76994;BME280;66749;47.406;18.822;2023-04-25T02:20:21;99289.75;;;11.24;70.84
76994;BME280;66749;47.406;18.822;2023-04-25T02:20:52;99283.56;;;11.25;71.18
76994;BME280;66749;47.406;18.822;2023-04-25T02:21:22;99288.59;;;11.28;71.14
76994;BME280;66749;47.406;18.822;2023-04-25T02:21:53;99293.34;;;11.34;71.03
76994;BME280;66749;47.406;18.822;2023-04-25T02:22:23;99293.34;;;11.34;71.18
76994;BME280;66749;47.406;18.822;2023-04-25T02:22:54;99294.50;;;11.30;70.88
76994;BME280;66749;47.406;18.822;2023-04-25T02:23:25;99286.44;;;11.33;71.00
76994;BME280;66749;47.406;18.822;2023-04-25T02:23:56;99294.63;;;11.28;70.99
76994;BME280;66749;47.406;18.822;2023-04-25T02:24:27;99301.75;;;11.26;70.98
76994;BME280;66749;47.406;18.822;2023-04-25T02:24:58;99299.25;;;11.25;71.29
76994;BME280;66749;47.406;18.822;2023-04-25T02:25:28;99291.78;;;11.20;71.01
76994;BME280;66749;47.406;18.822;2023-04-25T02:25:59;99290.59;;;11.24;71.27
76994;BME280;66749;47.406;18.822;2023-04-25T02:26:30;99292.16;;;11.27;71.31
76994;BME280;66749;47.406;18.822;2023-04-25T02:27:00;99291.19;;;11.28;71.31
76994;BME280;66749;47.406;18.822;2023-04-25T02:27:31;99292.16;;;11.27;71.28
76994;BME280;66749;47.406;18.822;2023-04-25T02:28:02;99296.53;;;11.26;71.52
76994;BME280;66749;47.406;18.822;2023-04-25T02:28:32;99290.25;;;11.29;71.61
76994;BME280;66749;47.406;18.822;2023-04-25T02:29:03;99302.09;;;11.33;71.17
76994;BME280;66749;47.406;18.822;2023-04-25T02:29:34;99292.97;;;11.27;71.06
76994;BME280;66749;47.406;18.822;2023-04-25T02:30:05;99297.13;;;11.30;71.24
76994;BME280;66749;47.406;18.822;2023-04-25T02:30:36;99297.94;;;11.30;71.61
76994;BME280;66749;47.406;18.822;2023-04-25T02:31:07;99293.81;;;11.28;71.45
76994;BME280;66749;47.406;18.822;2023-04-25T02:31:38;99296.75;;;11.23;71.63
76994;BME280;66749;47.406;18.822;2023-04-25T02:32:08;99302.59;;;11.27;71.42
76994;BME280;66749;47.406;18.822;2023-04-25T02:32:39;99295.69;;;11.26;71.25
76994;BME280;66749;47.406;18.822;2023-04-25T02:33:10;99292.84;;;11.29;71.22
76994;BME280;66749;47.406;18.822;2023-04-25T02:33:40;99295.47;;;11.29;71.41
76994;BME280;66749;47.406;18.822;2023-04-25T02:34:11;99292.16;;;11.27;71.50
76994;BME280;66749;47.406;18.822;2023-04-25T02:34:41;99302.69;;;11.25;71.66
76994;BME280;66749;47.406;18.822;2023-04-25T02:35:12;99299.50;;;11.22;71.44
76994;BME280;66749;47.406;18.822;2023-04-25T02:35:42;99301.16;;;11.23;71.22
76994;BME280;66749;47.406;18.822;2023-04-25T02:36:13;99297.59;;;11.24;71.23
76994;BME280;66749;47.406;18.822;2023-04-25T02:36:44;99297.84;;;11.21;71.44
76994;BME280;66749;47.406;18.822;2023-04-25T02:37:15;99305.41;;;11.24;71.50
76994;BME280;66749;47.406;18.822;2023-04-25T02:37:45;99303.06;;;11.21;71.46
76994;BME280;66749;47.406;18.822;2023-04-25T02:38:16;99300.56;;;11.19;71.21
76994;BME280;66749;47.406;18.822;2023-04-25T02:38:46;99297.84;;;11.21;71.11
76994;BME280;66749;47.406;18.822;2023-04-25T02:39:17;99301.16;;;11.23;71.04
76994;BME280;66749;47.406;18.822;2023-04-25T02:39:47;99300.56;;;11.19;71.20
76994;BME280;66749;47.406;18.822;2023-04-25T02:40:18;99297.84;;;11.21;71.40
76994;BME280;66749;47.406;18.822;2023-04-25T02:40:49;99293.19;;;11.24;71.44
76994;BME280;66749;47.406;18.822;2023-04-25T02:41:19;99300.44;;;11.21;70.76
76994;BME280;66749;47.406;18.822;2023-04-25T02:41:51;99296.16;;;11.20;70.77
76994;BME280;66749;47.406;18.822;2023-04-25T02:42:22;99298.16;;;11.16;71.09
76994;BME280;66749;47.406;18.822;2023-04-25T02:42:53;99295.69;;;11.15;71.13